sensor_id;sensor_type;location;lat;lon;timestamp;P1;durP1;ratioP1;P2;durP2;ratioP2
4464;SDS011;2245;48.136;13.428;2023-04-03T00:01:24;9.37;;;5.47;;
4464;SDS011;2245;48.136;13.428;2023-04-03T00:03:51;7.47;;;5.40;;
4464;SDS011;2245;48.136;13.428;2023-04-03T00:06:18;7.97;;;5.30;;
4464;SDS011;2245;48.136;13.428;2023-04-03T00:08:45;8.17;;;5.30;;
4464;SDS011;2245;48.136;13.428;2023-04-03T00:11:11;9.53;;;5.97;;
4464;SDS011;2245;48.136;13.428;2023-04-03T00:13:38;6.53;;;4.70;;
4464;SDS011;2245;48.136;13.428;2023-04-03T00:16:06;13.60;;;6.70;;
4464;SDS011;2245;48.136;13.428;2023-04-03T00:18:34;5.17;;;3.90;;
4464;SDS011;2245;48.136;13.428;2023-04-03T00:21:01;9.20;;;5.53;;
4464;SDS011;2245;48.136;13.428;2023-04-03T00:23:28;15.40;;;7.47;;
4464;SDS011;2245;48.136;13.428;2023-04-03T00:25:55;11.83;;;6.07;;
4464;SDS011;2245;48.136;13.428;2023-04-03T00:28:22;10.93;;;6.60;;
4464;SDS011;2245;48.136;13.428;2023-04-03T00:30:50;6.37;;;4.70;;
4464;SDS011;2245;48.136;13.428;2023-04-03T00:33:18;5.97;;;4.07;;
4464;SDS011;2245;48.136;13.428;2023-04-03T00:35:48;7.43;;;4.80;;
4464;SDS011;2245;48.136;13.428;2023-04-03T00:38:15;7.50;;;4.67;;
4464;SDS011;2245;48.136;13.428;2023-04-03T00:40:42;7.80;;;4.37;;
4464;SDS011;2245;48.136;13.428;2023-04-03T00:43:11;5.20;;;4.07;;
4464;SDS011;2245;48.136;13.428;2023-04-03T00:45:40;4.80;;;3.63;;
4464;SDS011;2245;48.136;13.428;2023-04-03T00:48:08;8.70;;;5.27;;
4464;SDS011;2245;48.136;13.428;2023-04-03T00:50:38;6.20;;;4.20;;
4464;SDS011;2245;48.136;13.428;2023-04-03T00:53:08;7.27;;;4.80;;
4464;SDS011;2245;48.136;13.428;2023-04-03T00:55:39;8.00;;;4.60;;
4464;SDS011;2245;48.136;13.428;2023-04-03T00:58:06;7.83;;;5.40;;
4464;SDS011;2245;48.136;13.428;2023-04-03T01:00:33;5.57;;;3.93;;
4464;SDS011;2245;48.136;13.428;2023-04-03T01:03:00;7.83;;;4.53;;
4464;SDS011;2245;48.136;13.428;2023-04-03T01:05:27;8.30;;;5.23;;
4464;SDS011;2245;48.136;13.428;2023-04-03T01:07:54;11.97;;;5.47;;
4464;SDS011;2245;48.136;13.428;2023-04-03T01:10:23;7.17;;;5.03;;
4464;SDS011;2245;48.136;13.428;2023-04-03T01:12:51;8.50;;;5.53;;
4464;SDS011;2245;48.136;13.428;2023-04-03T01:15:18;10.60;;;5.90;;
4464;SDS011;2245;48.136;13.428;2023-04-03T01:17:48;7.00;;;5.50;;
4464;SDS011;2245;48.136;13.428;2023-04-03T01:20:22;7.23;;;5.27;;
4464;SDS011;2245;48.136;13.428;2023-04-03T01:23:27;8.30;;;5.30;;
4464;SDS011;2245;48.136;13.428;2023-04-03T01:26:00;8.63;;;5.80;;
4464;SDS011;2245;48.136;13.428;2023-04-03T01:28:30;7.70;;;4.97;;
4464;SDS011;2245;48.136;13.428;2023-04-03T01:31:00;6.67;;;4.60;;
4464;SDS011;2245;48.136;13.428;2023-04-03T01:33:30;9.10;;;5.67;;
4464;SDS011;2245;48.136;13.428;2023-04-03T01:35:57;7.80;;;5.20;;
4464;SDS011;2245;48.136;13.428;2023-04-03T01:38:24;8.40;;;4.87;;
4464;SDS011;2245;48.136;13.428;2023-04-03T01:40:51;7.20;;;4.77;;
4464;SDS011;2245;48.136;13.428;2023-04-03T01:43:18;4.80;;;3.80;;
4464;SDS011;2245;48.136;13.428;2023-04-03T01:45:45;5.10;;;4.30;;
4464;SDS011;2245;48.136;13.428;2023-04-03T01:48:14;7.10;;;4.40;;
4464;SDS011;2245;48.136;13.428;2023-04-03T01:50:42;5.20;;;4.10;;
4464;SDS011;2245;48.136;13.428;2023-04-03T01:53:10;7.23;;;4.53;;
4464;SDS011;2245;48.136;13.428;2023-04-03T01:55:37;9.83;;;5.80;;
4464;SDS011;2245;48.136;13.428;2023-04-03T01:58:03;5.60;;;4.37;;
4464;SDS011;2245;48.136;13.428;2023-04-03T02:00:30;10.40;;;5.00;;
4464;SDS011;2245;48.136;13.428;2023-04-03T02:02:57;5.63;;;4.27;;
4464;SDS011;2245;48.136;13.428;2023-04-03T02:05:24;5.23;;;4.57;;
4464;SDS011;2245;48.136;13.428;2023-04-03T02:07:52;7.80;;;4.10;;
4464;SDS011;2245;48.136;13.428;2023-04-03T02:10:19;8.40;;;4.87;;
4464;SDS011;2245;48.136;13.428;2023-04-03T02:12:46;7.60;;;4.67;;
4464;SDS011;2245;48.136;13.428;2023-04-03T02:15:13;5.10;;;3.80;;
4464;SDS011;2245;48.136;13.428;2023-04-03T02:17:40;6.33;;;5.10;;
4464;SDS011;2245;48.136;13.428;2023-04-03T02:20:07;7.37;;;5.00;;
4464;SDS011;2245;48.136;13.428;2023-04-03T02:22:35;7.20;;;5.10;;
4464;SDS011;2245;48.136;13.428;2023-04-03T02:25:03;7.93;;;4.93;;
4464;SDS011;2245;48.136;13.428;2023-04-03T02:27:31;8.57;;;5.20;;
4464;SDS011;2245;48.136;13.428;2023-04-03T02:29:58;6.40;;;4.40;;
4464;SDS011;2245;48.136;13.428;2023-04-03T02:32:24;8.40;;;5.33;;
4464;SDS011;2245;48.136;13.428;2023-04-03T02:34:51;6.20;;;4.70;;
4464;SDS011;2245;48.136;13.428;2023-04-03T02:37:18;7.10;;;4.70;;
4464;SDS011;2245;48.136;13.428;2023-04-03T02:39:45;8.33;;;4.97;;
4464;SDS011;2245;48.136;13.428;2023-04-03T02:42:14;6.83;;;4.77;;
4464;SDS011;2245;48.136;13.428;2023-04-03T02:44:41;7.60;;;4.87;;
4464;SDS011;2245;48.136;13.428;2023-04-03T02:47:07;7.87;;;4.40;;
4464;SDS011;2245;48.136;13.428;2023-04-03T02:49:34;10.93;;;4.67;;
4464;SDS011;2245;48.136;13.428;2023-04-03T02:52:01;8.67;;;5.40;;
4464;SDS011;2245;48.136;13.428;2023-04-03T02:54:28;6.47;;;4.23;;
4464;SDS011;2245;48.136;13.428;2023-04-03T02:56:56;5.30;;;4.17;;
4464;SDS011;2245;48.136;13.428;2023-04-03T02:59:24;9.20;;;4.70;;
4464;SDS011;2245;48.136;13.428;2023-04-03T03:01:51;7.37;;;4.80;;
4464;SDS011;2245;48.136;13.428;2023-04-03T03:04:18;9.37;;;5.20;;
4464;SDS011;2245;48.136;13.428;2023-04-03T03:06:44;7.10;;;4.80;;
4464;SDS011;2245;48.136;13.428;2023-04-03T03:09:11;6.57;;;5.03;;
4464;SDS011;2245;48.136;13.428;2023-04-03T03:11:39;6.63;;;5.90;;
4464;SDS011;2245;48.136;13.428;2023-04-03T03:14:06;6.03;;;5.20;;
4464;SDS011;2245;48.136;13.428;2023-04-03T03:16:34;8.13;;;5.30;;
4464;SDS011;2245;48.136;13.428;2023-04-03T03:19:01;12.90;;;5.20;;
4464;SDS011;2245;48.136;13.428;2023-04-03T03:21:28;13.57;;;6.27;;
4464;SDS011;2245;48.136;13.428;2023-04-03T03:23:54;8.90;;;5.20;;
4464;SDS011;2245;48.136;13.428;2023-04-03T03:26:21;7.90;;;5.30;;
4464;SDS011;2245;48.136;13.428;2023-04-03T03:28:48;11.10;;;5.83;;
4464;SDS011;2245;48.136;13.428;2023-04-03T03:31:15;9.57;;;6.50;;
4464;SDS011;2245;48.136;13.428;2023-04-03T03:33:44;10.50;;;5.70;;
4464;SDS011;2245;48.136;13.428;2023-04-03T03:36:11;9.00;;;6.00;;
4464;SDS011;2245;48.136;13.428;2023-04-03T03:38:37;7.97;;;5.10;;
4464;SDS011;2245;48.136;13.428;2023-04-03T03:41:04;7.03;;;5.63;;
4464;SDS011;2245;48.136;13.428;2023-04-03T03:43:31;10.73;;;5.67;;
4464;SDS011;2245;48.136;13.428;2023-04-03T03:45:58;7.97;;;5.10;;
4464;SDS011;2245;48.136;13.428;2023-04-03T03:48:25;14.63;;;10.00;;
4464;SDS011;2245;48.136;13.428;2023-04-03T03:50:53;14.43;;;8.07;;
4464;SDS011;2245;48.136;13.428;2023-04-03T03:53:20;13.83;;;5.63;;
4464;SDS011;2245;48.136;13.428;2023-04-03T03:55:47;7.77;;;5.63;;
4464;SDS011;2245;48.136;13.428;2023-04-03T03:58:14;7.57;;;5.33;;
4464;SDS011;2245;48.136;13.428;2023-04-03T04:00:41;11.90;;;6.47;;
4464;SDS011;2245;48.136;13.428;2023-04-03T04:03:07;9.63;;;5.70;;
4464;SDS011;2245;48.136;13.428;2023-04-03T04:05:34;9.60;;;6.70;;
4464;SDS011;2245;48.136;13.428;2023-04-03T04:08:03;8.53;;;5.63;;
4464;SDS011;2245;48.136;13.428;2023-04-03T04:10:29;7.60;;;6.00;;
4464;SDS011;2245;48.136;13.428;2023-04-03T04:12:56;7.50;;;6.10;;
4464;SDS011;2245;48.136;13.428;2023-04-03T04:15:23;9.87;;;6.20;;
4464;SDS011;2245;48.136;13.428;2023-04-03T04:17:50;10.37;;;5.97;;
4464;SDS011;2245;48.136;13.428;2023-04-03T04:20:18;7.77;;;5.53;;
4464;SDS011;2245;48.136;13.428;2023-04-03T04:22:45;26.03;;;13.87;;
4464;SDS011;2245;48.136;13.428;2023-04-03T04:25:13;89.87;;;31.10;;
4464;SDS011;2245;48.136;13.428;2023-04-03T04:27:40;69.20;;;22.07;;
4464;SDS011;2245;48.136;13.428;2023-04-03T04:30:07;39.40;;;19.00;;
4464;SDS011;2245;48.136;13.428;2023-04-03T04:32:35;26.20;;;16.97;;
4464;SDS011;2245;48.136;13.428;2023-04-03T04:35:02;22.57;;;14.50;;
4464;SDS011;2245;48.136;13.428;2023-04-03T04:37:29;19.50;;;12.00;;
4464;SDS011;2245;48.136;13.428;2023-04-03T04:39:56;9.17;;;6.07;;
4464;SDS011;2245;48.136;13.428;2023-04-03T04:42:25;6.43;;;4.33;;
4464;SDS011;2245;48.136;13.428;2023-04-03T04:44:52;7.70;;;5.40;;
4464;SDS011;2245;48.136;13.428;2023-04-03T04:47:19;6.23;;;4.87;;
4464;SDS011;2245;48.136;13.428;2023-04-03T04:49:45;11.80;;;7.00;;
4464;SDS011;2245;48.136;13.428;2023-04-03T04:52:13;8.87;;;6.83;;
4464;SDS011;2245;48.136;13.428;2023-04-03T04:54:40;7.80;;;5.40;;
4464;SDS011;2245;48.136;13.428;2023-04-03T04:57:07;18.80;;;6.13;;
4464;SDS011;2245;48.136;13.428;2023-04-03T04:59:35;7.07;;;5.30;;
4464;SDS011;2245;48.136;13.428;2023-04-03T05:02:02;28.57;;;10.77;;
4464;SDS011;2245;48.136;13.428;2023-04-03T05:04:28;25.20;;;12.47;;
4464;SDS011;2245;48.136;13.428;2023-04-03T05:06:55;28.00;;;12.93;;
4464;SDS011;2245;48.136;13.428;2023-04-03T05:09:22;17.20;;;9.70;;
4464;SDS011;2245;48.136;13.428;2023-04-03T05:11:49;10.80;;;7.00;;
4464;SDS011;2245;48.136;13.428;2023-04-03T05:14:16;15.90;;;9.07;;
4464;SDS011;2245;48.136;13.428;2023-04-03T05:16:44;27.60;;;14.47;;
4464;SDS011;2245;48.136;13.428;2023-04-03T05:19:12;47.77;;;20.03;;
4464;SDS011;2245;48.136;13.428;2023-04-03T05:21:39;111.80;;;38.33;;
4464;SDS011;2245;48.136;13.428;2023-04-03T05:24:06;119.23;;;40.70;;
4464;SDS011;2245;48.136;13.428;2023-04-03T05:26:34;56.50;;;20.63;;
4464;SDS011;2245;48.136;13.428;2023-04-03T05:29:01;15.63;;;9.07;;
4464;SDS011;2245;48.136;13.428;2023-04-03T05:31:28;12.70;;;5.03;;
4464;SDS011;2245;48.136;13.428;2023-04-03T05:33:57;8.67;;;6.27;;
4464;SDS011;2245;48.136;13.428;2023-04-03T05:36:24;6.17;;;5.00;;
4464;SDS011;2245;48.136;13.428;2023-04-03T05:38:51;15.33;;;6.30;;
4464;SDS011;2245;48.136;13.428;2023-04-03T05:41:21;9.30;;;6.60;;
4464;SDS011;2245;48.136;13.428;2023-04-03T05:43:48;8.83;;;6.10;;
4464;SDS011;2245;48.136;13.428;2023-04-03T05:46:15;8.60;;;6.10;;
4464;SDS011;2245;48.136;13.428;2023-04-03T05:48:43;13.50;;;6.40;;
4464;SDS011;2245;48.136;13.428;2023-04-03T05:51:14;7.60;;;5.57;;
4464;SDS011;2245;48.136;13.428;2023-04-03T05:53:42;9.50;;;6.07;;
4464;SDS011;2245;48.136;13.428;2023-04-03T05:56:10;9.50;;;5.90;;
4464;SDS011;2245;48.136;13.428;2023-04-03T05:58:37;9.87;;;6.43;;
4464;SDS011;2245;48.136;13.428;2023-04-03T06:01:04;10.60;;;5.80;;
4464;SDS011;2245;48.136;13.428;2023-04-03T06:03:31;9.93;;;6.20;;
4464;SDS011;2245;48.136;13.428;2023-04-03T06:05:58;6.37;;;5.63;;
4464;SDS011;2245;48.136;13.428;2023-04-03T06:08:27;10.17;;;6.40;;
4464;SDS011;2245;48.136;13.428;2023-04-03T06:10:54;12.00;;;6.40;;
4464;SDS011;2245;48.136;13.428;2023-04-03T06:13:21;8.37;;;6.53;;
4464;SDS011;2245;48.136;13.428;2023-04-03T06:15:48;12.40;;;6.37;;
4464;SDS011;2245;48.136;13.428;2023-04-03T06:18:15;11.60;;;7.83;;
4464;SDS011;2245;48.136;13.428;2023-04-03T06:20:42;10.40;;;6.73;;
4464;SDS011;2245;48.136;13.428;2023-04-03T06:23:09;9.93;;;6.10;;
4464;SDS011;2245;48.136;13.428;2023-04-03T06:25:38;10.20;;;6.10;;
4464;SDS011;2245;48.136;13.428;2023-04-03T06:28:05;10.13;;;6.70;;
4464;SDS011;2245;48.136;13.428;2023-04-03T06:30:34;6.80;;;5.80;;
4464;SDS011;2245;48.136;13.428;2023-04-03T06:33:01;11.53;;;7.93;;
4464;SDS011;2245;48.136;13.428;2023-04-03T06:35:28;9.43;;;6.10;;
4464;SDS011;2245;48.136;13.428;2023-04-03T06:37:55;13.90;;;9.20;;
4464;SDS011;2245;48.136;13.428;2023-04-03T06:40:23;8.90;;;7.50;;
4464;SDS011;2245;48.136;13.428;2023-04-03T06:42:51;9.60;;;5.97;;
4464;SDS011;2245;48.136;13.428;2023-04-03T06:45:18;6.60;;;4.93;;
4464;SDS011;2245;48.136;13.428;2023-04-03T06:47:46;14.30;;;6.67;;
4464;SDS011;2245;48.136;13.428;2023-04-03T06:50:13;6.53;;;5.37;;
4464;SDS011;2245;48.136;13.428;2023-04-03T06:52:41;6.50;;;5.20;;
4464;SDS011;2245;48.136;13.428;2023-04-03T06:55:08;6.60;;;5.30;;
4464;SDS011;2245;48.136;13.428;2023-04-03T06:57:35;11.73;;;6.17;;
4464;SDS011;2245;48.136;13.428;2023-04-03T07:00:04;11.27;;;5.53;;
4464;SDS011;2245;48.136;13.428;2023-04-03T07:02:34;7.90;;;6.07;;
4464;SDS011;2245;48.136;13.428;2023-04-03T07:05:01;7.53;;;6.40;;
4464;SDS011;2245;48.136;13.428;2023-04-03T07:07:28;22.53;;;6.53;;
4464;SDS011;2245;48.136;13.428;2023-04-03T07:09:55;13.57;;;7.33;;
4464;SDS011;2245;48.136;13.428;2023-04-03T07:12:22;10.87;;;7.70;;
4464;SDS011;2245;48.136;13.428;2023-04-03T07:14:49;9.57;;;6.37;;
4464;SDS011;2245;48.136;13.428;2023-04-03T07:17:17;12.93;;;6.00;;
4464;SDS011;2245;48.136;13.428;2023-04-03T07:19:44;9.27;;;5.80;;
4464;SDS011;2245;48.136;13.428;2023-04-03T07:22:11;10.40;;;6.70;;
4464;SDS011;2245;48.136;13.428;2023-04-03T07:24:38;9.70;;;6.17;;
4464;SDS011;2245;48.136;13.428;2023-04-03T07:27:05;8.80;;;5.87;;
4464;SDS011;2245;48.136;13.428;2023-04-03T07:29:33;14.97;;;8.40;;
4464;SDS011;2245;48.136;13.428;2023-04-03T07:32:00;12.17;;;5.83;;
4464;SDS011;2245;48.136;13.428;2023-04-03T07:34:28;7.77;;;5.80;;
4464;SDS011;2245;48.136;13.428;2023-04-03T07:36:55;35.80;;;6.73;;
4464;SDS011;2245;48.136;13.428;2023-04-03T07:39:22;6.30;;;5.60;;
4464;SDS011;2245;48.136;13.428;2023-04-03T07:41:49;7.80;;;5.33;;
4464;SDS011;2245;48.136;13.428;2023-04-03T07:44:16;9.23;;;6.90;;
4464;SDS011;2245;48.136;13.428;2023-04-03T07:46:43;8.93;;;4.70;;
4464;SDS011;2245;48.136;13.428;2023-04-03T07:49:10;7.50;;;5.67;;
4464;SDS011;2245;48.136;13.428;2023-04-03T07:51:38;14.83;;;7.83;;
4464;SDS011;2245;48.136;13.428;2023-04-03T07:54:05;13.10;;;7.73;;
4464;SDS011;2245;48.136;13.428;2023-04-03T07:56:32;17.57;;;10.17;;
4464;SDS011;2245;48.136;13.428;2023-04-03T07:58:59;13.60;;;7.93;;
4464;SDS011;2245;48.136;13.428;2023-04-03T08:01:26;7.10;;;5.27;;
4464;SDS011;2245;48.136;13.428;2023-04-03T08:03:53;7.50;;;4.43;;
4464;SDS011;2245;48.136;13.428;2023-04-03T08:06:20;10.10;;;5.77;;
4464;SDS011;2245;48.136;13.428;2023-04-03T08:08:48;12.40;;;5.77;;
4464;SDS011;2245;48.136;13.428;2023-04-03T08:11:15;19.17;;;7.50;;
4464;SDS011;2245;48.136;13.428;2023-04-03T08:13:43;14.70;;;6.07;;
4464;SDS011;2245;48.136;13.428;2023-04-03T08:16:12;10.53;;;5.43;;
4464;SDS011;2245;48.136;13.428;2023-04-03T08:18:40;15.03;;;7.90;;
4464;SDS011;2245;48.136;13.428;2023-04-03T08:21:08;16.00;;;7.93;;
4464;SDS011;2245;48.136;13.428;2023-04-03T08:23:36;12.07;;;6.20;;
4464;SDS011;2245;48.136;13.428;2023-04-03T08:26:08;5.13;;;4.63;;
4464;SDS011;2245;48.136;13.428;2023-04-03T08:28:35;6.50;;;4.63;;
4464;SDS011;2245;48.136;13.428;2023-04-03T08:31:03;3.67;;;3.30;;
4464;SDS011;2245;48.136;13.428;2023-04-03T08:33:32;9.80;;;7.60;;
4464;SDS011;2245;48.136;13.428;2023-04-03T08:36:00;11.20;;;5.30;;
4464;SDS011;2245;48.136;13.428;2023-04-03T08:38:28;8.00;;;6.03;;
4464;SDS011;2245;48.136;13.428;2023-04-03T08:41:04;13.53;;;10.30;;
4464;SDS011;2245;48.136;13.428;2023-04-03T08:43:41;5.70;;;4.30;;
4464;SDS011;2245;48.136;13.428;2023-04-03T08:46:19;5.30;;;4.33;;
4464;SDS011;2245;48.136;13.428;2023-04-03T08:48:50;4.40;;;2.77;;
4464;SDS011;2245;48.136;13.428;2023-04-03T08:51:18;6.00;;;2.80;;
4464;SDS011;2245;48.136;13.428;2023-04-03T08:53:49;5.20;;;4.07;;
4464;SDS011;2245;48.136;13.428;2023-04-03T08:56:22;5.57;;;3.50;;
4464;SDS011;2245;48.136;13.428;2023-04-03T08:58:52;4.73;;;3.50;;
4464;SDS011;2245;48.136;13.428;2023-04-03T09:01:23;4.77;;;2.33;;
4464;SDS011;2245;48.136;13.428;2023-04-03T09:03:53;5.33;;;3.37;;
4464;SDS011;2245;48.136;13.428;2023-04-03T09:06:20;4.10;;;3.27;;
4464;SDS011;2245;48.136;13.428;2023-04-03T09:08:49;3.27;;;2.97;;
4464;SDS011;2245;48.136;13.428;2023-04-03T09:11:20;8.23;;;3.43;;
4464;SDS011;2245;48.136;13.428;2023-04-03T09:13:53;7.80;;;4.57;;
4464;SDS011;2245;48.136;13.428;2023-04-03T09:16:25;5.63;;;3.90;;
4464;SDS011;2245;48.136;13.428;2023-04-03T09:18:58;7.53;;;4.30;;
4464;SDS011;2245;48.136;13.428;2023-04-03T09:21:30;5.43;;;3.70;;
4464;SDS011;2245;48.136;13.428;2023-04-03T09:23:59;5.00;;;3.73;;
4464;SDS011;2245;48.136;13.428;2023-04-03T09:26:30;9.77;;;4.40;;
4464;SDS011;2245;48.136;13.428;2023-04-03T09:28:59;5.33;;;4.27;;
4464;SDS011;2245;48.136;13.428;2023-04-03T09:31:29;9.93;;;4.47;;
4464;SDS011;2245;48.136;13.428;2023-04-03T09:33:58;5.23;;;3.10;;
4464;SDS011;2245;48.136;13.428;2023-04-03T09:36:37;19.30;;;8.10;;
4464;SDS011;2245;48.136;13.428;2023-04-03T09:39:05;14.33;;;5.53;;
4464;SDS011;2245;48.136;13.428;2023-04-03T09:41:38;24.70;;;7.30;;
4464;SDS011;2245;48.136;13.428;2023-04-03T09:44:17;6.30;;;4.47;;
4464;SDS011;2245;48.136;13.428;2023-04-03T09:46:46;5.53;;;3.90;;
4464;SDS011;2245;48.136;13.428;2023-04-03T09:49:13;3.83;;;3.30;;
4464;SDS011;2245;48.136;13.428;2023-04-03T09:51:40;5.53;;;3.43;;
4464;SDS011;2245;48.136;13.428;2023-04-03T09:54:25;3.40;;;3.10;;
4464;SDS011;2245;48.136;13.428;2023-04-03T09:56:59;7.43;;;3.97;;
4464;SDS011;2245;48.136;13.428;2023-04-03T09:59:28;11.70;;;4.13;;
4464;SDS011;2245;48.136;13.428;2023-04-03T10:01:58;5.90;;;4.17;;
4464;SDS011;2245;48.136;13.428;2023-04-03T10:04:27;7.90;;;3.73;;
4464;SDS011;2245;48.136;13.428;2023-04-03T10:07:03;8.67;;;3.90;;
4464;SDS011;2245;48.136;13.428;2023-04-03T10:09:55;16.73;;;5.57;;
4464;SDS011;2245;48.136;13.428;2023-04-03T10:12:24;3.97;;;3.03;;
4464;SDS011;2245;48.136;13.428;2023-04-03T10:14:55;5.67;;;2.93;;
4464;SDS011;2245;48.136;13.428;2023-04-03T10:17:25;2.40;;;2.20;;
4464;SDS011;2245;48.136;13.428;2023-04-03T10:20:01;3.47;;;2.30;;
4464;SDS011;2245;48.136;13.428;2023-04-03T10:22:35;6.63;;;5.83;;
4464;SDS011;2245;48.136;13.428;2023-04-03T10:25:09;23.47;;;4.60;;
4464;SDS011;2245;48.136;13.428;2023-04-03T10:27:44;4.40;;;3.00;;
4464;SDS011;2245;48.136;13.428;2023-04-03T10:30:25;6.73;;;3.17;;
4464;SDS011;2245;48.136;13.428;2023-04-03T10:32:59;5.00;;;2.90;;
4464;SDS011;2245;48.136;13.428;2023-04-03T10:35:37;3.97;;;2.97;;
4464;SDS011;2245;48.136;13.428;2023-04-03T10:38:11;4.17;;;2.70;;
4464;SDS011;2245;48.136;13.428;2023-04-03T10:40:44;5.40;;;2.70;;
4464;SDS011;2245;48.136;13.428;2023-04-03T10:43:17;7.40;;;2.03;;
4464;SDS011;2245;48.136;13.428;2023-04-03T10:45:56;6.60;;;3.23;;
4464;SDS011;2245;48.136;13.428;2023-04-03T10:48:30;4.57;;;2.50;;
4464;SDS011;2245;48.136;13.428;2023-04-03T10:51:08;3.33;;;3.13;;
4464;SDS011;2245;48.136;13.428;2023-04-03T10:53:42;4.80;;;3.30;;
4464;SDS011;2245;48.136;13.428;2023-04-03T10:56:13;5.10;;;3.23;;
4464;SDS011;2245;48.136;13.428;2023-04-03T10:58:47;3.60;;;2.67;;
4464;SDS011;2245;48.136;13.428;2023-04-03T11:01:16;3.80;;;2.40;;
4464;SDS011;2245;48.136;13.428;2023-04-03T11:03:46;4.47;;;3.20;;
4464;SDS011;2245;48.136;13.428;2023-04-03T11:06:15;6.80;;;3.37;;
4464;SDS011;2245;48.136;13.428;2023-04-03T11:08:44;3.43;;;2.73;;
4464;SDS011;2245;48.136;13.428;2023-04-03T11:11:13;2.90;;;2.60;;
4464;SDS011;2245;48.136;13.428;2023-04-03T11:13:43;5.43;;;2.90;;
4464;SDS011;2245;48.136;13.428;2023-04-03T11:16:16;4.03;;;2.50;;
4464;SDS011;2245;48.136;13.428;2023-04-03T11:18:47;3.63;;;2.70;;
4464;SDS011;2245;48.136;13.428;2023-04-03T11:21:17;13.50;;;3.33;;
4464;SDS011;2245;48.136;13.428;2023-04-03T11:23:46;4.93;;;2.50;;
4464;SDS011;2245;48.136;13.428;2023-04-03T11:26:15;3.40;;;2.30;;
4464;SDS011;2245;48.136;13.428;2023-04-03T11:28:43;8.33;;;2.67;;
4464;SDS011;2245;48.136;13.428;2023-04-03T11:31:15;10.77;;;3.33;;
4464;SDS011;2245;48.136;13.428;2023-04-03T11:33:52;3.97;;;2.67;;
4464;SDS011;2245;48.136;13.428;2023-04-03T11:36:25;3.93;;;3.60;;
4464;SDS011;2245;48.136;13.428;2023-04-03T11:38:55;2.60;;;2.40;;
4464;SDS011;2245;48.136;13.428;2023-04-03T11:41:25;6.10;;;2.40;;
4464;SDS011;2245;48.136;13.428;2023-04-03T11:43:57;2.93;;;2.40;;
4464;SDS011;2245;48.136;13.428;2023-04-03T11:58:13;2.67;;;1.33;;
4464;SDS011;2245;48.136;13.428;2023-04-03T12:00:51;3.73;;;2.03;;
4464;SDS011;2245;48.136;13.428;2023-04-03T12:09:33;3.73;;;3.43;;
4464;SDS011;2245;48.136;13.428;2023-04-03T12:18:31;2.90;;;1.30;;
4464;SDS011;2245;48.136;13.428;2023-04-03T12:21:09;2.57;;;1.60;;
4464;SDS011;2245;48.136;13.428;2023-04-03T12:23:37;2.30;;;1.40;;
4464;SDS011;2245;48.136;13.428;2023-04-03T12:26:23;1.90;;;1.53;;
4464;SDS011;2245;48.136;13.428;2023-04-03T12:28:53;1.13;;;1.10;;
4464;SDS011;2245;48.136;13.428;2023-04-03T12:31:20;1.50;;;1.17;;
4464;SDS011;2245;48.136;13.428;2023-04-03T12:36:45;2.17;;;1.60;;
4464;SDS011;2245;48.136;13.428;2023-04-03T12:39:33;2.97;;;1.77;;
4464;SDS011;2245;48.136;13.428;2023-04-03T12:42:05;7.77;;;1.63;;
4464;SDS011;2245;48.136;13.428;2023-04-03T12:44:44;1.50;;;1.23;;
4464;SDS011;2245;48.136;13.428;2023-04-03T12:47:22;1.83;;;1.70;;
4464;SDS011;2245;48.136;13.428;2023-04-03T12:49:50;3.23;;;2.10;;
4464;SDS011;2245;48.136;13.428;2023-04-03T12:52:21;3.83;;;2.00;;
4464;SDS011;2245;48.136;13.428;2023-04-03T12:54:55;2.60;;;1.57;;
4464;SDS011;2245;48.136;13.428;2023-04-03T12:57:24;1.63;;;1.53;;
4464;SDS011;2245;48.136;13.428;2023-04-03T12:59:52;3.23;;;2.23;;
4464;SDS011;2245;48.136;13.428;2023-04-03T13:02:21;1.43;;;1.33;;
4464;SDS011;2245;48.136;13.428;2023-04-03T13:04:50;25.30;;;8.27;;
4464;SDS011;2245;48.136;13.428;2023-04-03T13:07:21;20.97;;;7.70;;
4464;SDS011;2245;48.136;13.428;2023-04-03T13:10:00;3.00;;;2.33;;
4464;SDS011;2245;48.136;13.428;2023-04-03T13:12:30;3.47;;;1.90;;
4464;SDS011;2245;48.136;13.428;2023-04-03T13:14:58;2.80;;;2.03;;
4464;SDS011;2245;48.136;13.428;2023-04-03T13:17:26;2.40;;;1.50;;
4464;SDS011;2245;48.136;13.428;2023-04-03T13:19:54;2.40;;;1.50;;
4464;SDS011;2245;48.136;13.428;2023-04-03T13:22:28;2.47;;;1.63;;
4464;SDS011;2245;48.136;13.428;2023-04-03T13:24:58;7.70;;;1.60;;
4464;SDS011;2245;48.136;13.428;2023-04-03T13:27:26;10.40;;;2.23;;
4464;SDS011;2245;48.136;13.428;2023-04-03T13:29:54;2.50;;;1.73;;
4464;SDS011;2245;48.136;13.428;2023-04-03T13:32:24;2.30;;;1.13;;
4464;SDS011;2245;48.136;13.428;2023-04-03T13:34:52;9.60;;;2.90;;
4464;SDS011;2245;48.136;13.428;2023-04-03T13:37:20;2.80;;;2.27;;
4464;SDS011;2245;48.136;13.428;2023-04-03T13:39:57;9.13;;;2.50;;
4464;SDS011;2245;48.136;13.428;2023-04-03T13:42:29;3.63;;;2.07;;
4464;SDS011;2245;48.136;13.428;2023-04-03T13:45:10;1.67;;;1.50;;
4464;SDS011;2245;48.136;13.428;2023-04-03T13:47:45;3.53;;;1.90;;
4464;SDS011;2245;48.136;13.428;2023-04-03T13:50:15;3.60;;;2.40;;
4464;SDS011;2245;48.136;13.428;2023-04-03T13:52:45;3.93;;;2.13;;
4464;SDS011;2245;48.136;13.428;2023-04-03T13:55:19;4.37;;;2.07;;
4464;SDS011;2245;48.136;13.428;2023-04-03T13:57:49;2.40;;;2.10;;
4464;SDS011;2245;48.136;13.428;2023-04-03T14:03:11;5.47;;;2.10;;
4464;SDS011;2245;48.136;13.428;2023-04-03T14:05:39;2.67;;;2.47;;
4464;SDS011;2245;48.136;13.428;2023-04-03T14:08:06;17.03;;;6.10;;
4464;SDS011;2245;48.136;13.428;2023-04-03T14:10:36;3.50;;;2.30;;
4464;SDS011;2245;48.136;13.428;2023-04-03T14:13:03;5.90;;;2.30;;
4464;SDS011;2245;48.136;13.428;2023-04-03T14:15:31;4.83;;;2.67;;
4464;SDS011;2245;48.136;13.428;2023-04-03T14:17:58;3.67;;;2.50;;
4464;SDS011;2245;48.136;13.428;2023-04-03T14:20:26;2.03;;;1.83;;
4464;SDS011;2245;48.136;13.428;2023-04-03T14:22:53;3.30;;;2.63;;
4464;SDS011;2245;48.136;13.428;2023-04-03T14:25:21;2.73;;;2.53;;
4464;SDS011;2245;48.136;13.428;2023-04-03T14:27:50;4.17;;;2.37;;
4464;SDS011;2245;48.136;13.428;2023-04-03T14:30:19;2.77;;;2.20;;
4464;SDS011;2245;48.136;13.428;2023-04-03T14:32:48;3.77;;;2.50;;
4464;SDS011;2245;48.136;13.428;2023-04-03T14:35:15;7.47;;;2.27;;
4464;SDS011;2245;48.136;13.428;2023-04-03T14:37:42;5.07;;;3.10;;
4464;SDS011;2245;48.136;13.428;2023-04-03T14:40:11;2.93;;;2.23;;
4464;SDS011;2245;48.136;13.428;2023-04-03T14:42:39;5.40;;;2.50;;
4464;SDS011;2245;48.136;13.428;2023-04-03T14:45:08;3.07;;;1.93;;
4464;SDS011;2245;48.136;13.428;2023-04-03T14:47:39;7.07;;;2.83;;
4464;SDS011;2245;48.136;13.428;2023-04-03T14:50:07;4.83;;;2.40;;
4464;SDS011;2245;48.136;13.428;2023-04-03T14:52:39;3.83;;;2.70;;
4464;SDS011;2245;48.136;13.428;2023-04-03T14:55:06;6.10;;;2.83;;
4464;SDS011;2245;48.136;13.428;2023-04-03T14:57:34;5.90;;;2.73;;
4464;SDS011;2245;48.136;13.428;2023-04-03T15:00:01;5.40;;;3.30;;
4464;SDS011;2245;48.136;13.428;2023-04-03T15:02:31;4.97;;;2.97;;
4464;SDS011;2245;48.136;13.428;2023-04-03T15:05:00;2.10;;;2.00;;
4464;SDS011;2245;48.136;13.428;2023-04-03T15:07:29;6.77;;;3.87;;
4464;SDS011;2245;48.136;13.428;2023-04-03T15:09:57;5.50;;;2.90;;
4464;SDS011;2245;48.136;13.428;2023-04-03T15:12:42;7.17;;;3.03;;
4464;SDS011;2245;48.136;13.428;2023-04-03T15:15:09;6.10;;;4.07;;
4464;SDS011;2245;48.136;13.428;2023-04-03T15:17:38;5.17;;;3.20;;
4464;SDS011;2245;48.136;13.428;2023-04-03T15:20:06;8.07;;;3.07;;
4464;SDS011;2245;48.136;13.428;2023-04-03T15:22:38;6.37;;;3.60;;
4464;SDS011;2245;48.136;13.428;2023-04-03T15:25:05;6.60;;;2.93;;
4464;SDS011;2245;48.136;13.428;2023-04-03T15:27:32;3.30;;;3.10;;
4464;SDS011;2245;48.136;13.428;2023-04-03T15:29:59;6.60;;;2.50;;
4464;SDS011;2245;48.136;13.428;2023-04-03T15:32:27;9.23;;;2.77;;
4464;SDS011;2245;48.136;13.428;2023-04-03T15:34:55;6.00;;;3.87;;
4464;SDS011;2245;48.136;13.428;2023-04-03T15:37:22;3.30;;;2.67;;
4464;SDS011;2245;48.136;13.428;2023-04-03T15:39:49;6.33;;;2.90;;